createdAt,value
2023-03-16T00:01:09.463Z,100844.13
2023-03-16T00:06:11.370Z,100849.16
2023-03-16T00:11:12.846Z,100848.41
2023-03-16T00:16:16.885Z,100843.75
2023-03-16T00:21:18.357Z,100853.72
2023-03-16T00:26:19.883Z,100856.03
2023-03-16T00:31:21.307Z,100861.09
2023-03-16T00:36:22.791Z,100861.94
2023-03-16T00:41:24.229Z,100846.63
2023-03-16T00:46:26.878Z,100848.13
2023-03-16T00:51:28.382Z,100843.84
2023-03-16T00:56:29.755Z,100848.78
2023-03-16T01:01:34.799Z,100850.44
2023-03-16T01:06:37.779Z,100838.72
2023-03-16T01:11:45.258Z,100835.38
2023-03-16T01:16:46.826Z,100834.44
2023-03-16T01:21:48.233Z,100837.78
2023-03-16T01:26:49.704Z,100837.78
2023-03-16T01:31:51.176Z,100832.75
2023-03-16T01:36:53.340Z,100827.69
2023-03-16T01:41:54.898Z,100819.22
2023-03-16T01:46:56.978Z,100795.69
2023-03-16T01:52:14.181Z,100793.16
2023-03-16T01:57:19.568Z,100802.31
2023-03-16T02:02:26.843Z,100805.47
2023-03-16T02:07:30.616Z,100822.81
2023-03-16T02:12:32.377Z,100824.25
2023-03-16T02:17:36.373Z,100808.31
2023-03-16T02:22:42.185Z,100799.09
2023-03-16T02:28:29.437Z,100796.53
2023-03-16T02:33:33.304Z,100783.16
2023-03-16T02:38:34.797Z,100778.94
2023-03-16T02:43:40.002Z,100768.03
2023-03-16T02:48:46.621Z,100763.84
2023-03-16T02:53:48.039Z,100753.75
2023-03-16T02:58:49.614Z,100764.50
2023-03-16T03:03:51.053Z,100761.94
2023-03-16T03:08:52.602Z,100765.22
2023-03-16T03:13:55.045Z,100765.03
2023-03-16T03:18:56.498Z,100749.03
2023-03-16T03:23:57.961Z,100740.69
2023-03-16T03:28:59.369Z,100734.84
2023-03-16T03:34:06.441Z,100728.16
2023-03-16T03:39:08.204Z,100716.50
2023-03-16T03:44:09.661Z,100716.50
2023-03-16T03:49:11.191Z,100719.84
2023-03-16T03:54:12.614Z,100723.97
2023-03-16T03:59:14.046Z,100720.56
2023-03-16T04:04:16.338Z,100717.16
2023-03-16T04:09:17.806Z,100718.78
2023-03-16T04:14:19.235Z,100722.97
2023-03-16T04:19:22.678Z,100722.09
2023-03-16T04:24:24.145Z,100719.53
2023-03-16T04:29:25.654Z,100717.03
2023-03-16T04:34:27.088Z,100707.81
2023-03-16T04:39:28.761Z,100721.13
2023-03-16T04:44:30.307Z,100722.66
2023-03-16T04:49:31.786Z,100713.53
2023-03-16T04:54:33.454Z,100722.72
2023-03-16T04:59:34.998Z,100723.47
2023-03-16T05:04:36.673Z,100726.00
2023-03-16T05:09:38.152Z,100724.31
2023-03-16T05:14:39.561Z,100720.94
2023-03-16T05:19:42.228Z,100719.94
2023-03-16T05:24:44.728Z,100717.47
2023-03-16T05:29:46.732Z,100714.22
2023-03-16T05:34:48.197Z,100712.63
2023-03-16T05:39:49.704Z,100706.09
2023-03-16T05:44:51.166Z,100706.25
2023-03-16T05:49:52.574Z,100703.13
2023-03-16T05:54:54.168Z,100704.09
2023-03-16T05:59:55.567Z,100706.81
2023-03-16T06:04:56.989Z,100706.19
2023-03-16T06:09:58.429Z,100702.75
2023-03-16T06:15:00.900Z,100704.84
2023-03-16T06:20:03.611Z,100708.78
2023-03-16T06:25:06.272Z,100702.84
2023-03-16T06:30:10.023Z,100693.88
2023-03-16T06:35:12.720Z,100706.09
2023-03-16T06:40:14.210Z,100701.66
2023-03-16T06:45:17.401Z,100694.78
2023-03-16T06:50:18.961Z,100694.28
2023-03-16T06:55:21.016Z,100688.50
2023-03-16T07:00:22.780Z,100694.03
2023-03-16T07:05:24.262Z,100693.06
2023-03-16T07:10:25.787Z,100685.22
2023-03-16T07:15:27.212Z,100689.44
2023-03-16T07:20:31.423Z,100695.22
2023-03-16T07:25:33.105Z,100688.72
2023-03-16T07:30:34.568Z,100691.81
2023-03-16T07:35:36.044Z,100694.13
2023-03-16T07:40:39.571Z,100692.84
2023-03-16T07:45:41.594Z,100690.88
2023-03-16T07:50:44.105Z,100682.97
2023-03-16T07:55:46.462Z,100681.69
2023-03-16T08:00:48.011Z,100673.19
2023-03-16T08:05:49.915Z,100659.44
2023-03-16T08:10:53.171Z,100648.59
2023-03-16T08:15:58.529Z,100641.19
2023-03-16T08:21:00.544Z,100640.06
2023-03-16T08:26:01.980Z,100640.84
2023-03-16T08:31:07.641Z,100634.72
2023-03-16T08:36:11.781Z,100633.72
2023-03-16T08:41:14.108Z,100635.00
2023-03-16T08:46:16.226Z,100650.28
2023-03-16T08:51:18.946Z,100653.38
2023-03-16T08:56:20.620Z,100646.69
2023-03-16T09:01:22.281Z,100629.78
2023-03-16T09:06:24.421Z,100625.38
2023-03-16T09:11:30.530Z,100611.63
2023-03-16T09:16:32.041Z,100611.34
2023-03-16T09:21:36.170Z,100606.63
2023-03-16T09:26:39.892Z,100607.97
2023-03-16T09:31:41.684Z,100603.16
2023-03-16T09:36:43.203Z,100603.97
2023-03-16T09:41:59.106Z,100600.13
2023-03-16T09:47:03.967Z,100595.53
2023-03-16T09:52:25.558Z,100585.41
2023-03-16T09:57:34.815Z,100588.84
2023-03-16T10:02:58.439Z,100581.31
2023-03-16T10:08:05.628Z,100558.50
2023-03-16T10:13:22.298Z,100557.13
2023-03-16T10:18:32.314Z,100541.13
2023-03-16T10:23:35.676Z,100536.03
2023-03-16T10:28:37.659Z,100533.31
2023-03-16T10:33:39.639Z,100541.09
2023-03-16T10:38:48.367Z,100530.53
2023-03-16T10:44:07.522Z,100537.78
2023-03-16T10:49:22.504Z,100531.19
2023-03-16T10:54:30.741Z,100528.19
2023-03-16T10:59:37.018Z,100523.22
2023-03-16T11:04:38.543Z,100516.44
2023-03-16T11:09:40.138Z,100514.66
2023-03-16T11:14:45.387Z,100507.13
2023-03-16T11:19:59.245Z,100496.09
2023-03-16T11:25:09.424Z,100494.91
2023-03-16T11:30:29.219Z,100496.94
2023-03-16T11:35:39.945Z,100484.53
2023-03-16T11:41:23.849Z,100474.00
2023-03-16T11:46:31.495Z,100470.31
2023-03-16T11:51:47.818Z,100460.94
2023-03-16T11:57:01.273Z,100456.16
2023-03-16T12:02:26.179Z,100454.41
2023-03-16T12:07:55.438Z,100445.94
2023-03-16T12:13:18.176Z,100450.44
2023-03-16T12:18:26.252Z,100446.28
2023-03-16T12:23:44.255Z,100440.69
2023-03-16T12:28:48.196Z,100430.72
2023-03-16T12:34:11.033Z,100407.81
2023-03-16T12:39:18.683Z,100411.72
2023-03-16T12:44:36.635Z,100402.50
2023-03-16T12:49:38.508Z,100386.19
2023-03-16T12:54:54.818Z,100393.13
2023-03-16T13:00:00.618Z,100397.88
2023-03-16T13:05:09.575Z,100394.06
2023-03-16T13:10:14.781Z,100384.38
2023-03-16T13:15:20.089Z,100369.66
2023-03-16T13:20:30.678Z,100366.03
2023-03-16T13:25:32.769Z,100365.72
2023-03-16T13:30:35.045Z,100361.91
2023-03-16T13:35:41.034Z,100359.66
2023-03-16T13:40:51.510Z,100345.00
2023-03-16T13:45:52.877Z,100335.78
2023-03-16T13:50:57.864Z,100322.28
2023-03-16T13:56:02.626Z,100322.34
2023-03-16T14:01:11.996Z,100300.66
2023-03-16T14:06:26.669Z,100290.94
2023-03-16T14:11:28.566Z,100292.84
2023-03-16T14:16:32.193Z,100296.91
2023-03-16T14:21:34.645Z,100291.84
2023-03-16T14:26:45.386Z,100279.91
2023-03-16T14:31:47.015Z,100270.09
2023-03-16T14:36:48.822Z,100271.28
2023-03-16T14:41:52.246Z,100260.19
2023-03-16T14:46:57.319Z,100251.97
2023-03-16T14:52:17.480Z,100263.06
2023-03-16T14:57:19.617Z,100259.03
2023-03-16T15:02:30.305Z,100257.00
2023-03-16T15:07:36.041Z,100252.38
2023-03-16T15:12:37.987Z,100253.31
2023-03-16T15:17:39.496Z,100256.00
2023-03-16T15:22:41.874Z,100254.41
2023-03-16T15:27:43.744Z,100247.88
2023-03-16T15:32:45.385Z,100244.47
2023-03-16T15:37:47.321Z,100240.09
2023-03-16T15:42:49.100Z,100240.06
2023-03-16T15:47:53.095Z,100235.03
2023-03-16T15:53:05.981Z,100223.44
2023-03-16T15:58:20.325Z,100225.09
2023-03-16T16:03:22.176Z,100215.84
2023-03-16T16:08:23.638Z,100215.06
2023-03-16T16:13:43.084Z,100211.25
2023-03-16T16:18:48.571Z,100207.59
2023-03-16T16:23:50.858Z,100207.81
2023-03-16T16:28:53.025Z,100203.94
2023-03-16T16:33:54.608Z,100198.31
2023-03-16T16:38:57.218Z,100208.56
2023-03-16T16:44:05.147Z,100194.97
2023-03-16T16:49:17.732Z,100194.03
2023-03-16T16:54:24.435Z,100203.88
2023-03-16T16:59:31.539Z,100204.25
2023-03-16T17:04:33.079Z,100207.25
2023-03-16T17:09:34.761Z,100211.13
2023-03-16T17:14:36.256Z,100208.38
2023-03-16T17:19:37.934Z,100208.25
2023-03-16T17:24:40.083Z,100199.50
2023-03-16T17:29:42.718Z,100203.50
2023-03-16T17:34:44.487Z,100205.94
2023-03-16T17:39:46.226Z,100205.50
2023-03-16T17:44:52.504Z,100196.47
2023-03-16T17:49:54.662Z,100199.38
2023-03-16T17:54:56.608Z,100197.38
2023-03-16T18:00:00.174Z,100190.47
2023-03-16T18:05:05.540Z,100182.91
2023-03-16T18:10:07.667Z,100181.16
2023-03-16T18:15:16.362Z,100179.44
2023-03-16T18:20:30.943Z,100171.66
2023-03-16T18:25:36.215Z,100174.09
2023-03-16T18:30:39.497Z,100175.78
2023-03-16T18:35:41.004Z,100169.00
2023-03-16T18:40:42.441Z,100167.09
2023-03-16T18:45:45.873Z,100163.66
2023-03-16T18:50:48.002Z,100160.53
2023-03-16T18:55:50.360Z,100160.13
2023-03-16T19:00:57.527Z,100158.66
2023-03-16T19:06:01.068Z,100161.69
2023-03-16T19:11:03.273Z,100163.59
2023-03-16T19:16:09.048Z,100156.69
2023-03-16T19:21:17.591Z,100155.28
2023-03-16T19:26:19.252Z,100157.63
2023-03-16T19:31:24.846Z,100160.84
2023-03-16T19:36:30.241Z,100171.22
2023-03-16T19:41:35.355Z,100182.25
2023-03-16T19:46:37.062Z,100183.91
2023-03-16T19:51:38.487Z,100171.81
2023-03-16T19:56:40.323Z,100170.00
2023-03-16T20:01:42.083Z,100166.06
2023-03-16T20:06:43.854Z,100179.81
2023-03-16T20:11:46.969Z,100156.25
2023-03-16T20:16:48.710Z,100149.69
2023-03-16T20:21:50.394Z,100149.94
2023-03-16T20:26:54.012Z,100147.81
2023-03-16T20:31:56.166Z,100153.91
2023-03-16T20:36:57.854Z,100157.56
2023-03-16T20:41:59.328Z,100162.16
2023-03-16T20:47:01.110Z,100159.03
2023-03-16T20:52:03.910Z,100147.56
2023-03-16T20:57:08.020Z,100145.19
2023-03-16T21:02:39.613Z,100137.47
2023-03-16T21:07:42.502Z,100145.88
2023-03-16T21:12:47.567Z,100151.97
2023-03-16T21:17:57.519Z,100158.94
2023-03-16T21:22:59.710Z,100163.28
2023-03-16T21:28:05.105Z,100153.38
2023-03-16T21:33:24.353Z,100155.97
2023-03-16T21:38:27.971Z,100151.72
2023-03-16T21:43:29.520Z,100148.41
2023-03-16T21:48:39.113Z,100147.69
2023-03-16T21:53:41.158Z,100146.25
2023-03-16T21:58:44.056Z,100136.31
2023-03-16T22:03:50.833Z,100133.03
2023-03-16T22:08:53.069Z,100133.16
2023-03-16T22:13:55.926Z,100132.50
2023-03-16T22:18:58.094Z,100126.72
2023-03-16T22:24:01.053Z,100108.34
2023-03-16T22:29:06.856Z,100107.69
2023-03-16T22:34:24.223Z,100105.19
2023-03-16T22:39:25.807Z,100093.50
2023-03-16T22:44:27.391Z,100092.84
2023-03-16T22:49:28.959Z,100087.94
2023-03-16T22:54:30.852Z,100083.78
2023-03-16T22:59:32.307Z,100098.16
2023-03-16T23:04:33.824Z,100101.56
2023-03-16T23:09:35.356Z,100093.25
2023-03-16T23:14:38.107Z,100089.31
2023-03-16T23:19:39.580Z,100092.03
2023-03-16T23:24:42.424Z,100100.59
2023-03-16T23:29:44.214Z,100088.91
2023-03-16T23:34:46.060Z,100082.56
2023-03-16T23:39:48.435Z,100075.78
2023-03-16T23:44:49.952Z,100070.66
2023-03-16T23:49:51.411Z,100068.03
2023-03-16T23:54:52.836Z,100070.28
2023-03-16T23:59:54.313Z,100072.78
